createdAt,value
2018-09-24T00:00:05.220Z,94.61
2018-09-24T00:01:05.128Z,94.91
2018-09-24T00:02:05.114Z,95.22
2018-09-24T00:03:05.103Z,94.19
2018-09-24T00:04:05.092Z,93.99
2018-09-24T00:05:05.078Z,93.78
2018-09-24T00:06:05.068Z,94.81
2018-09-24T00:07:05.057Z,95.22
2018-09-24T00:08:05.045Z,95.53
2018-09-24T00:09:05.037Z,95.94
2018-09-24T00:10:05.023Z,96.08
2018-09-24T00:11:05.013Z,96.29
2018-09-24T00:12:05.001Z,95.88
2018-09-24T00:13:04.992Z,96.04
2018-09-24T00:14:04.980Z,95.83
2018-09-24T00:15:04.968Z,95.73
2018-09-24T00:16:04.965Z,95.73
2018-09-24T00:17:04.948Z,95.83
2018-09-24T00:18:04.938Z,94.50
2018-09-24T00:19:04.926Z,93.82
2018-09-24T00:20:04.915Z,94.29
2018-09-24T00:21:04.907Z,94.61
2018-09-24T00:22:04.894Z,95.01
2018-09-24T00:23:04.880Z,95.22
2018-09-24T00:24:04.872Z,93.21
2018-09-24T00:25:04.861Z,93.78
2018-09-24T00:26:04.850Z,93.99
2018-09-24T00:27:04.841Z,94.50
2018-09-24T00:28:04.827Z,94.29
2018-09-24T00:29:04.820Z,94.19
2018-09-24T00:30:04.805Z,94.19
2018-09-24T00:31:04.794Z,94.29
2018-09-24T00:32:04.788Z,93.78
2018-09-24T00:33:04.775Z,93.99
2018-09-24T00:34:04.761Z,93.58
2018-09-24T00:35:04.749Z,92.65
2018-09-24T00:36:04.739Z,93.48
2018-09-24T00:37:04.728Z,93.58
2018-09-24T00:38:04.722Z,93.68
2018-09-24T00:39:04.709Z,93.72
2018-09-24T00:40:04.698Z,93.11
2018-09-24T00:41:04.685Z,93.21
2018-09-24T00:42:04.676Z,93.82
2018-09-24T00:43:04.698Z,93.11
2018-09-24T00:44:04.653Z,93.31
2018-09-24T00:45:04.646Z,93.62
2018-09-24T00:46:04.632Z,94.03
2018-09-24T00:47:04.626Z,94.95
2018-09-24T00:48:04.609Z,94.03
2018-09-24T00:49:04.597Z,94.34
2018-09-24T00:50:04.588Z,94.65
2018-09-24T00:51:04.574Z,94.95
2018-09-24T00:52:04.566Z,93.93
2018-09-24T00:53:04.554Z,94.14
2018-09-24T00:54:04.546Z,93.72
2018-09-24T00:55:04.531Z,94.03
2018-09-24T00:56:04.525Z,94.03
2018-09-24T00:57:04.513Z,94.54
2018-09-24T00:58:04.503Z,93.82
2018-09-24T00:59:04.488Z,93.52
2018-09-24T01:00:04.477Z,93.93
2018-09-24T01:01:04.468Z,94.14
2018-09-24T01:02:04.458Z,93.93
2018-09-24T01:03:04.446Z,93.82
2018-09-24T01:04:04.434Z,93.62
2018-09-24T01:05:04.423Z,93.21
2018-09-24T01:06:04.412Z,93.56
2018-09-24T01:07:04.400Z,93.87
2018-09-24T01:08:04.391Z,93.87
2018-09-24T01:09:04.378Z,93.52
2018-09-24T01:10:04.369Z,93.25
2018-09-24T01:11:04.357Z,93.67
2018-09-24T01:12:04.347Z,93.87
2018-09-24T01:13:04.336Z,94.69
2018-09-24T01:14:04.324Z,94.90
2018-09-24T01:15:04.314Z,95.10
2018-09-24T01:16:04.302Z,95.37
2018-09-24T01:17:04.289Z,95.06
2018-09-24T01:18:04.279Z,94.95
2018-09-24T01:19:04.272Z,94.65
2018-09-24T01:20:04.259Z,93.93
2018-09-24T01:21:04.251Z,94.65
2018-09-24T01:22:04.236Z,94.24
2018-09-24T01:23:04.231Z,94.34
2018-09-24T01:24:04.216Z,94.44
2018-09-24T01:25:04.204Z,94.44
2018-09-24T01:26:04.192Z,94.44
2018-09-24T01:27:04.182Z,94.44
2018-09-24T01:28:04.172Z,94.14
2018-09-24T01:29:04.161Z,94.75
2018-09-24T01:30:04.149Z,95.06
2018-09-24T01:31:04.136Z,94.75
2018-09-24T01:32:04.130Z,93.62
2018-09-24T01:33:04.116Z,94.24
2018-09-24T01:34:04.104Z,94.65
2018-09-24T01:35:04.097Z,94.44
2018-09-24T01:36:04.081Z,94.54
2018-09-24T01:37:04.073Z,94.34
2018-09-24T01:38:04.061Z,94.75
2018-09-24T01:39:04.053Z,95.26
2018-09-24T01:40:04.042Z,94.24
2018-09-24T01:41:04.029Z,94.24
2018-09-24T01:42:04.018Z,94.54
2018-09-24T01:43:04.006Z,94.85
2018-09-24T01:44:04.002Z,94.61
2018-09-24T01:45:03.983Z,94.61
2018-09-24T01:46:03.972Z,94.19
2018-09-24T01:47:03.963Z,93.99
2018-09-24T01:48:03.953Z,94.40
2018-09-24T01:49:03.953Z,93.99
2018-09-24T01:50:03.933Z,94.09
2018-09-24T01:51:03.918Z,92.86
2018-09-24T01:52:03.908Z,93.17
2018-09-24T01:53:03.902Z,92.86
2018-09-24T01:54:03.886Z,93.06
2018-09-24T01:55:03.879Z,93.68
2018-09-24T01:56:03.873Z,93.72
2018-09-24T01:57:03.854Z,94.03
2018-09-24T01:58:03.846Z,94.14
2018-09-24T01:59:03.833Z,91.67
2018-09-24T02:00:03.822Z,92.29
2018-09-24T02:01:03.812Z,92.70
2018-09-24T02:02:03.802Z,92.90
2018-09-24T02:03:03.792Z,93.62
2018-09-24T02:04:03.777Z,93.82
2018-09-24T02:05:03.770Z,93.52
2018-09-24T02:06:03.757Z,93.11
2018-09-24T02:07:03.746Z,93.93
2018-09-24T02:08:03.734Z,92.39
2018-09-24T02:09:03.723Z,92.80
2018-09-24T02:10:03.715Z,92.39
2018-09-24T02:11:03.703Z,93.01
2018-09-24T02:12:03.691Z,92.49
2018-09-24T02:13:03.680Z,92.49
2018-09-24T02:14:03.672Z,92.90
2018-09-24T02:15:03.659Z,93.62
2018-09-24T02:16:03.648Z,93.82
2018-09-24T02:17:03.641Z,93.42
2018-09-24T02:18:03.624Z,93.01
2018-09-24T02:19:03.613Z,93.01
2018-09-24T02:20:03.607Z,92.39
2018-09-24T02:21:03.597Z,93.21
2018-09-24T02:22:03.582Z,93.52
2018-09-24T02:23:03.569Z,93.93
2018-09-24T02:24:03.565Z,92.90
2018-09-24T02:25:03.547Z,93.01
2018-09-24T02:26:03.537Z,93.21
2018-09-24T02:27:03.530Z,93.31
2018-09-24T02:28:03.517Z,93.01
2018-09-24T02:29:03.504Z,93.21
2018-09-24T02:30:03.493Z,93.72
2018-09-24T02:31:03.485Z,94.24
2018-09-24T02:32:03.471Z,94.44
2018-09-24T02:33:03.462Z,94.54
2018-09-24T02:34:03.451Z,94.65
2018-09-24T02:35:03.440Z,94.65
2018-09-24T02:36:03.426Z,93.93
2018-09-24T02:37:03.419Z,93.27
2018-09-24T02:38:03.411Z,93.37
2018-09-24T02:39:03.396Z,93.48
2018-09-24T02:40:03.390Z,92.04
2018-09-24T02:41:03.378Z,91.57
2018-09-24T02:42:03.366Z,92.18
2018-09-24T02:43:03.354Z,93.01
2018-09-24T02:44:03.341Z,92.29
2018-09-24T02:45:03.328Z,91.67
2018-09-24T02:46:03.320Z,92.18
2018-09-24T02:47:03.308Z,93.01
2018-09-24T02:48:03.296Z,93.62
2018-09-24T02:49:03.287Z,93.72
2018-09-24T02:50:03.275Z,92.70
2018-09-24T02:51:03.262Z,92.18
2018-09-24T02:52:03.252Z,92.59
2018-09-24T02:53:03.242Z,93.21
2018-09-24T02:54:03.232Z,94.03
2018-09-24T02:55:03.219Z,93.82
2018-09-24T02:56:03.219Z,92.59
2018-09-24T02:57:03.197Z,92.18
2018-09-24T02:58:03.187Z,92.29
2018-09-24T02:59:03.176Z,92.49
2018-09-24T03:00:03.168Z,93.82
2018-09-24T03:01:03.153Z,93.52
2018-09-24T03:02:03.143Z,93.01
2018-09-24T03:03:03.133Z,91.26
2018-09-24T03:04:03.125Z,92.49
2018-09-24T03:05:03.111Z,93.42
2018-09-24T03:06:03.104Z,93.25
2018-09-24T03:07:03.089Z,93.35
2018-09-24T03:08:03.080Z,92.95
2018-09-24T03:09:03.068Z,94.18
2018-09-24T03:10:03.055Z,92.63
2018-09-24T03:11:03.047Z,92.74
2018-09-24T03:12:03.037Z,93.15
2018-09-24T03:13:03.022Z,92.63
2018-09-24T03:14:03.013Z,93.15
2018-09-24T03:15:03.008Z,92.33
2018-09-24T03:16:02.990Z,92.84
2018-09-24T03:17:02.984Z,93.87
2018-09-24T03:18:02.968Z,93.25
2018-09-24T03:19:02.957Z,93.67
2018-09-24T03:20:02.954Z,93.56
2018-09-24T03:21:02.936Z,94.28
2018-09-24T03:22:02.935Z,94.48
2018-09-24T03:23:02.915Z,94.48
2018-09-24T03:24:02.903Z,94.48
2018-09-24T03:25:02.893Z,94.69
2018-09-24T03:26:02.880Z,93.56
2018-09-24T03:27:02.868Z,92.95
2018-09-24T03:28:02.858Z,93.56
2018-09-24T03:29:02.848Z,93.15
2018-09-24T03:30:02.838Z,91.71
2018-09-24T03:31:02.826Z,92.23
2018-09-24T03:32:02.814Z,91.71
2018-09-24T03:33:02.802Z,92.12
2018-09-24T03:34:02.791Z,92.37
2018-09-24T03:35:02.786Z,92.68
2018-09-24T03:36:02.771Z,92.78
2018-09-24T03:37:02.762Z,93.30
2018-09-24T03:38:02.749Z,93.92
2018-09-24T03:39:02.739Z,93.30
2018-09-24T03:40:02.735Z,93.09
2018-09-24T03:41:02.715Z,92.99
2018-09-24T03:42:02.824Z,92.88
2018-09-24T03:43:02.695Z,93.30
2018-09-24T03:44:02.683Z,92.78
2018-09-24T03:45:02.670Z,92.88
2018-09-24T03:46:02.660Z,93.67
2018-09-24T03:47:02.651Z,93.56
2018-09-24T03:48:02.639Z,93.56
2018-09-24T03:49:02.628Z,93.15
2018-09-24T03:50:02.615Z,92.23
2018-09-24T03:51:02.613Z,92.63
2018-09-24T03:52:02.597Z,92.63
2018-09-24T03:53:02.586Z,93.15
2018-09-24T03:54:02.574Z,91.41
2018-09-24T03:55:02.565Z,92.27
2018-09-24T03:56:02.550Z,91.86
2018-09-24T03:57:02.545Z,91.65
2018-09-24T03:58:02.539Z,92.58
2018-09-24T03:59:02.561Z,93.20
2018-09-24T04:00:02.510Z,93.40
2018-09-24T04:01:02.498Z,92.58
2018-09-24T04:02:02.484Z,92.68
2018-09-24T04:03:02.478Z,91.76
2018-09-24T04:04:02.464Z,91.86
2018-09-24T04:05:02.461Z,92.16
2018-09-24T04:06:02.450Z,92.88
2018-09-24T04:07:02.432Z,92.88
2018-09-24T04:08:02.420Z,93.09
2018-09-24T04:09:02.411Z,91.86
2018-09-24T04:10:02.421Z,92.37
2018-09-24T04:11:02.387Z,93.09
2018-09-24T04:12:02.375Z,93.60
2018-09-24T04:13:02.366Z,93.81
2018-09-24T04:14:02.358Z,93.30
2018-09-24T04:15:02.343Z,93.13
2018-09-24T04:16:02.340Z,93.44
2018-09-24T04:17:02.321Z,93.54
2018-09-24T04:18:02.315Z,93.34
2018-09-24T04:19:02.303Z,93.44
2018-09-24T04:20:02.287Z,93.65
2018-09-24T04:21:02.278Z,93.54
2018-09-24T04:22:02.267Z,93.85
2018-09-24T04:23:02.260Z,94.06
2018-09-24T04:24:02.243Z,93.54
2018-09-24T04:25:02.235Z,93.65
2018-09-24T04:26:02.238Z,93.96
2018-09-24T04:27:02.212Z,94.26
2018-09-24T04:28:02.203Z,94.16
2018-09-24T04:29:02.192Z,93.96
2018-09-24T04:30:02.189Z,93.96
2018-09-24T04:31:02.169Z,93.96
2018-09-24T04:32:02.161Z,94.06
2018-09-24T04:33:02.154Z,94.47
2018-09-24T04:34:02.135Z,94.37
2018-09-24T04:35:02.128Z,94.26
2018-09-24T04:36:02.115Z,94.37
2018-09-24T04:37:02.103Z,94.01
2018-09-24T04:38:02.092Z,93.81
2018-09-24T04:39:02.082Z,94.12
2018-09-24T04:40:02.071Z,93.81
2018-09-24T04:41:02.060Z,93.81
2018-09-24T04:42:02.054Z,94.01
2018-09-24T04:43:02.049Z,94.32
2018-09-24T04:44:02.031Z,94.22
2018-09-24T04:45:02.015Z,93.92
2018-09-24T04:46:02.004Z,93.81
2018-09-24T04:47:01.995Z,92.84
2018-09-24T04:48:01.983Z,92.68
2018-09-24T04:49:01.984Z,92.68
2018-09-24T04:50:01.960Z,92.88
2018-09-24T04:51:01.949Z,93.60
2018-09-24T04:52:01.937Z,93.20
2018-09-24T04:53:01.929Z,93.54
2018-09-24T04:54:01.971Z,93.65
2018-09-24T04:55:01.915Z,93.81
2018-09-24T04:56:01.902Z,93.34
2018-09-24T04:57:01.886Z,93.85
2018-09-24T04:58:01.927Z,93.65
2018-09-24T04:59:01.865Z,93.54
2018-09-24T05:00:01.853Z,93.85
2018-09-24T05:01:01.841Z,93.85
2018-09-24T05:02:01.828Z,93.85
2018-09-24T05:03:01.819Z,93.75
2018-09-24T05:04:01.820Z,94.00
2018-09-24T05:05:01.794Z,94.11
2018-09-24T05:06:01.785Z,94.51
2018-09-24T05:07:01.793Z,94.92
2018-09-24T05:08:01.765Z,94.51
2018-09-24T05:09:01.754Z,94.31
2018-09-24T05:10:01.746Z,94.51
2018-09-24T05:11:01.728Z,94.51
2018-09-24T05:12:01.721Z,94.41
2018-09-24T05:13:01.708Z,94.41
2018-09-24T05:14:01.701Z,94.62
2018-09-24T05:15:01.686Z,94.92
2018-09-24T05:16:01.687Z,95.03
2018-09-24T05:17:01.664Z,94.78
2018-09-24T05:18:01.658Z,94.37
2018-09-24T05:19:01.648Z,94.58
2018-09-24T05:20:01.632Z,94.47
2018-09-24T05:21:01.620Z,94.58
2018-09-24T05:22:01.616Z,94.37
2018-09-24T05:23:01.600Z,94.06
2018-09-24T05:24:01.587Z,93.96
2018-09-24T05:25:01.578Z,94.06
2018-09-24T05:26:01.573Z,94.58
2018-09-24T05:27:01.553Z,94.26
2018-09-24T05:28:01.544Z,94.26
2018-09-24T05:29:01.533Z,93.96
2018-09-24T05:30:01.520Z,94.47
2018-09-24T05:31:01.509Z,93.96
2018-09-24T05:32:01.500Z,93.65
2018-09-24T05:33:01.495Z,93.75
2018-09-24T05:34:01.538Z,93.34
2018-09-24T05:35:01.471Z,93.40
2018-09-24T05:36:01.456Z,93.50
2018-09-24T05:37:01.444Z,93.30
2018-09-24T05:38:01.433Z,93.30
2018-09-24T05:39:01.424Z,93.09
2018-09-24T05:40:01.413Z,92.11
2018-09-24T05:41:01.402Z,92.52
2018-09-24T05:42:01.393Z,92.73
2018-09-24T05:43:01.380Z,92.62
2018-09-24T05:44:01.368Z,92.41
2018-09-24T05:45:01.356Z,92.93
2018-09-24T05:46:01.348Z,93.44
2018-09-24T05:47:01.341Z,93.24
2018-09-24T05:48:01.349Z,93.03
2018-09-24T05:49:01.318Z,92.73
2018-09-24T05:50:01.313Z,92.52
2018-09-24T05:51:01.306Z,93.13
2018-09-24T05:52:01.281Z,93.54
2018-09-24T05:53:01.269Z,93.34
2018-09-24T05:54:01.257Z,93.54
2018-09-24T05:55:01.253Z,93.13
2018-09-24T05:56:01.237Z,92.31
2018-09-24T05:57:01.224Z,92.52
2018-09-24T05:58:01.214Z,92.62
2018-09-24T05:59:01.206Z,92.73
2018-09-24T06:00:01.198Z,92.62
2018-09-24T06:01:01.182Z,93.03
2018-09-24T06:02:01.168Z,93.44
2018-09-24T06:03:01.158Z,93.03
2018-09-24T06:04:01.148Z,92.73
2018-09-24T06:05:01.138Z,92.16
2018-09-24T06:06:01.127Z,91.76
2018-09-24T06:07:01.115Z,91.55
2018-09-24T06:08:01.111Z,91.86
2018-09-24T06:09:01.102Z,91.55
2018-09-24T06:10:01.093Z,91.55
2018-09-24T06:11:01.072Z,91.41
2018-09-24T06:12:01.062Z,91.20
2018-09-24T06:13:01.050Z,90.99
2018-09-24T06:14:01.039Z,90.93
2018-09-24T06:15:01.030Z,91.24
2018-09-24T06:16:01.018Z,91.24
2018-09-24T06:17:01.004Z,91.76
2018-09-24T06:18:00.994Z,91.71
2018-09-24T06:19:01.023Z,91.92
2018-09-24T06:20:00.973Z,91.41
2018-09-24T06:21:00.961Z,91.20
2018-09-24T06:22:00.958Z,91.10
2018-09-24T06:23:00.941Z,90.89
2018-09-24T06:24:00.940Z,90.75
2018-09-24T06:25:00.917Z,90.03
2018-09-24T06:26:00.907Z,90.07
2018-09-24T06:27:00.894Z,89.72
2018-09-24T06:28:00.885Z,90.17
2018-09-24T06:29:00.878Z,89.66
2018-09-24T06:30:00.888Z,89.66
2018-09-24T06:31:00.871Z,89.25
2018-09-24T06:32:00.842Z,89.56
2018-09-24T06:33:00.839Z,89.66
2018-09-24T06:34:00.841Z,90.07
2018-09-24T06:35:00.811Z,89.00
2018-09-24T06:36:00.808Z,89.41
2018-09-24T06:37:00.803Z,89.47
2018-09-24T06:38:00.774Z,88.51
2018-09-24T06:39:00.766Z,86.07
2018-09-24T06:40:00.756Z,85.43
2018-09-24T06:41:00.799Z,86.46
2018-09-24T06:42:00.733Z,87.13
2018-09-24T06:43:00.722Z,84.68
2018-09-24T06:44:00.716Z,84.88
2018-09-24T06:45:00.714Z,85.63
2018-09-24T06:46:00.688Z,85.94
2018-09-24T06:47:00.685Z,86.56
2018-09-24T06:48:00.667Z,86.76
2018-09-24T06:49:00.666Z,85.29
2018-09-24T06:50:00.677Z,85.35
2018-09-24T06:51:00.637Z,83.70
2018-09-24T06:52:00.620Z,81.89
2018-09-24T06:53:00.614Z,81.33
2018-09-24T06:54:00.599Z,78.64
2018-09-24T06:55:00.589Z,77.51
2018-09-24T06:56:00.581Z,74.11
2018-09-24T06:57:00.565Z,75.47
2018-09-24T06:58:00.556Z,75.33
2018-09-24T06:59:00.543Z,73.84
2018-09-24T07:00:00.537Z,74.82
2018-09-24T07:01:00.524Z,77.96
2018-09-24T07:02:00.512Z,80.04
2018-09-24T07:03:00.601Z,79.87
2018-09-24T07:04:00.490Z,81.31
2018-09-24T07:05:00.478Z,80.90
2018-09-24T07:06:00.470Z,80.87
2018-09-24T07:07:00.466Z,81.73
2018-09-24T07:08:00.525Z,81.75
2018-09-24T07:09:00.437Z,80.97
2018-09-24T07:10:00.424Z,81.96
2018-09-24T07:11:00.413Z,82.23
2018-09-24T07:12:00.403Z,78.98
2018-09-24T07:13:00.392Z,77.48
2018-09-24T07:14:00.406Z,79.12
2018-09-24T07:15:00.370Z,80.59
2018-09-24T07:16:00.357Z,79.16
2018-09-24T07:17:00.347Z,78.75
2018-09-24T07:18:00.339Z,79.26
2018-09-24T07:19:00.325Z,80.73
2018-09-24T07:20:00.330Z,80.15
2018-09-24T07:21:00.301Z,82.03
2018-09-24T07:22:00.291Z,82.95
2018-09-24T07:23:00.281Z,82.44
2018-09-24T07:24:00.269Z,83.00
2018-09-24T07:25:00.260Z,83.88
2018-09-24T07:26:00.246Z,83.84
2018-09-24T07:27:00.239Z,82.20
2018-09-24T07:28:00.262Z,83.08
2018-09-24T07:29:00.215Z,82.88
2018-09-24T07:30:00.205Z,81.69
2018-09-24T07:31:00.191Z,82.51
2018-09-24T07:32:00.183Z,82.92
2018-09-24T07:33:00.199Z,82.67
2018-09-24T07:34:00.163Z,83.76
2018-09-24T07:35:00.151Z,81.06
2018-09-24T07:36:00.140Z,79.43
2018-09-24T07:37:00.126Z,79.94
2018-09-24T07:38:00.115Z,79.37
2018-09-24T07:39:00.132Z,79.46
2018-09-24T07:40:00.098Z,81.10
2018-09-24T07:41:00.081Z,81.10
2018-09-24T07:42:00.075Z,80.72
2018-09-24T07:43:00.064Z,79.25
2018-09-24T07:44:00.057Z,77.92
2018-09-24T07:45:00.038Z,79.60
2018-09-24T07:46:00.028Z,80.86
2018-09-24T07:47:00.019Z,80.59
2018-09-24T07:48:00.007Z,82.02
2018-09-24T07:49:00.013Z,81.06
2018-09-24T07:49:59.982Z,83.62
2018-09-24T07:51:00.002Z,78.30
2018-09-24T07:51:59.971Z,79.22
2018-09-24T07:52:59.952Z,78.92
2018-09-24T07:53:59.938Z,78.71
2018-09-24T07:54:59.935Z,78.75
2018-09-24T07:55:59.918Z,80.28
2018-09-24T07:56:59.906Z,82.60
2018-09-24T07:57:59.895Z,81.54
2018-09-24T07:58:59.887Z,79.53
2018-09-24T07:59:59.874Z,78.98
2018-09-24T08:00:59.917Z,79.60
2018-09-24T08:01:59.853Z,80.96
2018-09-24T08:02:59.843Z,80.41
2018-09-24T08:03:59.829Z,79.19
2018-09-24T08:04:59.819Z,79.76
2018-09-24T08:05:59.808Z,81.40
2018-09-24T08:06:59.797Z,78.23
2018-09-24T08:07:59.787Z,78.64
2018-09-24T08:08:59.778Z,76.70
2018-09-24T08:09:59.763Z,76.39
2018-09-24T08:10:59.753Z,77.96
2018-09-24T08:11:59.740Z,78.33
2018-09-24T08:12:59.820Z,77.72
2018-09-24T08:13:59.720Z,79.93
2018-09-24T08:14:59.710Z,77.99
2018-09-24T08:15:59.698Z,79.28
2018-09-24T08:16:59.688Z,76.32
2018-09-24T08:17:59.676Z,76.53
2018-09-24T08:18:59.666Z,77.30
2018-09-24T08:19:59.652Z,78.12
2018-09-24T08:20:59.689Z,76.01
2018-09-24T08:21:59.632Z,75.81
2018-09-24T08:22:59.621Z,76.01
2018-09-24T08:23:59.609Z,77.24
2018-09-24T08:24:59.602Z,75.61
2018-09-24T08:25:59.586Z,74.96
2018-09-24T08:26:59.578Z,74.72
2018-09-24T08:27:59.567Z,75.54
2018-09-24T08:28:59.620Z,75.23
2018-09-24T08:29:59.544Z,76.15
2018-09-24T08:30:59.533Z,73.77
2018-09-24T08:31:59.522Z,73.16
2018-09-24T08:32:59.512Z,73.33
2018-09-24T08:33:59.511Z,72.31
2018-09-24T08:34:59.490Z,73.60
2018-09-24T08:35:59.483Z,72.41
2018-09-24T08:36:59.468Z,72.17
2018-09-24T08:37:59.472Z,72.68
2018-09-24T08:38:59.445Z,72.38
2018-09-24T08:39:59.437Z,74.62
2018-09-24T08:40:59.424Z,73.66
2018-09-24T08:41:59.413Z,71.80
2018-09-24T08:42:59.400Z,73.73
2018-09-24T08:43:59.413Z,72.51
2018-09-24T08:44:59.379Z,70.65
2018-09-24T08:45:59.368Z,71.56
2018-09-24T08:46:59.369Z,70.85
2018-09-24T08:47:59.347Z,68.57
2018-09-24T08:48:59.339Z,68.37
2018-09-24T08:49:59.324Z,69.73
2018-09-24T08:50:59.318Z,69.93
2018-09-24T08:51:59.303Z,69.93
2018-09-24T08:52:59.294Z,73.80
2018-09-24T08:53:59.281Z,70.78
2018-09-24T08:54:59.417Z,73.33
2018-09-24T08:55:59.410Z,72.51
2018-09-24T08:57:00.302Z,72.21
2018-09-24T08:57:59.238Z,72.41
2018-09-24T08:58:59.233Z,74.01
2018-09-24T08:59:59.223Z,72.10
2018-09-24T09:00:59.207Z,72.00
2018-09-24T09:01:59.196Z,72.31
2018-09-24T09:02:59.186Z,74.21
2018-09-24T09:03:59.174Z,72.27
2018-09-24T09:04:59.162Z,72.88
2018-09-24T09:05:59.153Z,71.22
2018-09-24T09:06:59.139Z,70.10
2018-09-24T09:07:59.130Z,70.61
2018-09-24T09:08:59.117Z,71.42
2018-09-24T09:09:59.108Z,71.36
2018-09-24T09:10:59.097Z,70.98
2018-09-24T09:11:59.099Z,72.31
2018-09-24T09:12:59.090Z,71.19
2018-09-24T09:13:59.063Z,72.21
2018-09-24T09:14:59.060Z,72.82
2018-09-24T09:15:59.045Z,73.40
2018-09-24T09:16:59.030Z,69.97
2018-09-24T09:17:59.019Z,70.27
2018-09-24T09:18:59.184Z,71.90
2018-09-24T09:19:58.996Z,71.29
2018-09-24T09:20:58.987Z,70.68
2018-09-24T09:21:58.977Z,72.41
2018-09-24T09:22:58.963Z,69.97
2018-09-24T09:23:58.970Z,70.47
2018-09-24T09:24:58.945Z,75.02
2018-09-24T09:25:58.936Z,74.71
2018-09-24T09:26:58.923Z,70.61
2018-09-24T09:27:58.908Z,71.83
2018-09-24T09:28:58.900Z,72.82
2018-09-24T09:29:58.889Z,73.53
2018-09-24T09:30:58.878Z,69.83
2018-09-24T09:31:58.866Z,69.12
2018-09-24T09:32:58.854Z,68.92
2018-09-24T09:33:58.847Z,67.83
2018-09-24T09:34:58.834Z,68.85
2018-09-24T09:35:58.823Z,71.60
2018-09-24T09:36:58.813Z,69.87
2018-09-24T09:37:58.801Z,72.31
2018-09-24T09:38:58.792Z,68.75
2018-09-24T09:39:58.781Z,70.75
2018-09-24T09:40:58.800Z,68.61
2018-09-24T09:41:58.768Z,71.97
2018-09-24T09:42:58.747Z,71.05
2018-09-24T09:43:58.737Z,68.24
2018-09-24T09:44:58.744Z,69.05
2018-09-24T09:45:58.714Z,70.68
2018-09-24T09:46:58.703Z,73.12
2018-09-24T09:47:58.691Z,70.88
2018-09-24T09:48:58.682Z,70.34
2018-09-24T09:49:58.670Z,67.63
2018-09-24T09:50:58.661Z,63.66
2018-09-24T09:51:58.649Z,65.77
2018-09-24T09:52:58.639Z,67.49
2018-09-24T09:53:58.626Z,68.31
2018-09-24T09:54:58.617Z,67.19
2018-09-24T09:55:58.604Z,68.82
2018-09-24T09:56:58.593Z,66.79
2018-09-24T09:57:58.583Z,69.22
2018-09-24T09:58:58.622Z,65.06
2018-09-24T09:59:58.564Z,64.34
2018-09-24T10:00:58.552Z,68.28
2018-09-24T10:01:58.539Z,63.90
2018-09-24T10:02:58.530Z,64.65
2018-09-24T10:03:58.516Z,64.34
2018-09-24T10:04:58.508Z,66.07
2018-09-24T10:05:58.496Z,64.85
2018-09-24T10:06:58.485Z,68.48
2018-09-24T10:07:58.477Z,68.45
2018-09-24T10:08:58.466Z,68.01
2018-09-24T10:09:58.454Z,61.21
2018-09-24T10:10:58.440Z,63.37
2018-09-24T10:11:58.429Z,66.29
2018-09-24T10:12:58.423Z,63.98
2018-09-24T10:13:58.411Z,63.78
2018-09-24T10:14:58.398Z,61.04
2018-09-24T10:15:58.386Z,58.06
2018-09-24T10:16:58.382Z,62.20
2018-09-24T10:17:58.365Z,59.46
2018-09-24T10:18:58.360Z,58.67
2018-09-24T10:19:58.345Z,59.79
2018-09-24T10:20:58.332Z,62.22
2018-09-24T10:21:58.320Z,61.08
2018-09-24T10:22:58.312Z,63.01
2018-09-24T10:23:58.303Z,63.92
2018-09-24T10:24:58.291Z,63.82
2018-09-24T10:25:58.278Z,64.42
2018-09-24T10:26:58.266Z,66.15
2018-09-24T10:27:58.255Z,61.82
2018-09-24T10:28:58.246Z,63.03
2018-09-24T10:29:58.235Z,58.57
2018-09-24T10:30:58.224Z,61.41
2018-09-24T10:31:58.213Z,60.29
2018-09-24T10:32:58.205Z,59.58
2018-09-24T10:33:58.192Z,58.57
2018-09-24T10:34:58.179Z,60.90
2018-09-24T10:35:58.172Z,61.04
2018-09-24T10:36:58.156Z,59.71
2018-09-24T10:37:58.172Z,60.32
2018-09-24T10:38:58.148Z,60.22
2018-09-24T10:39:58.131Z,62.56
2018-09-24T10:40:58.113Z,57.89
2018-09-24T10:41:58.106Z,59.94
2018-09-24T10:42:58.096Z,59.53
2018-09-24T10:43:58.080Z,63.00
2018-09-24T10:44:58.070Z,60.25
2018-09-24T10:45:58.105Z,61.57
2018-09-24T10:46:58.048Z,64.62
2018-09-24T10:47:58.038Z,64.11
2018-09-24T10:48:58.028Z,63.09
2018-09-24T10:49:58.018Z,60.89
2018-09-24T10:50:58.004Z,64.14
2018-09-24T10:51:57.993Z,64.95
2018-09-24T10:52:58.041Z,65.13
2018-09-24T10:53:57.970Z,60.66
2018-09-24T10:54:57.967Z,60.05
2018-09-24T10:55:58.025Z,62.45
2018-09-24T10:56:57.939Z,60.22
2018-09-24T10:57:57.929Z,60.60
2018-09-24T10:58:57.918Z,60.90
2018-09-24T10:59:57.906Z,61.69
2018-09-24T11:00:57.898Z,58.44
2018-09-24T11:01:57.885Z,62.98
2018-09-24T11:02:57.876Z,56.59
2018-09-24T11:03:57.864Z,56.59
2018-09-24T11:04:57.938Z,59.40
2018-09-24T11:05:57.843Z,56.56
2018-09-24T11:06:57.834Z,56.26
2018-09-24T11:07:57.818Z,55.54
2018-09-24T11:08:57.809Z,54.33
2018-09-24T11:09:57.798Z,57.91
2018-09-24T11:10:57.787Z,54.15
2018-09-24T11:11:57.777Z,55.37
2018-09-24T11:12:57.765Z,55.67
2018-09-24T11:13:57.752Z,53.44
2018-09-24T11:14:57.743Z,55.80
2018-09-24T11:15:57.838Z,55.57
2018-09-24T11:16:57.871Z,55.47
2018-09-24T11:17:57.853Z,54.56
2018-09-24T11:18:57.700Z,56.39
2018-09-24T11:19:57.690Z,54.66
2018-09-24T11:20:57.677Z,55.78
2018-09-24T11:21:57.670Z,60.13
2018-09-24T11:22:57.656Z,58.14
2018-09-24T11:23:57.645Z,55.40
2018-09-24T11:24:57.632Z,58.03
2018-09-24T11:25:57.621Z,56.51
2018-09-24T11:26:57.610Z,57.53
2018-09-24T11:27:57.601Z,59.79
2018-09-24T11:28:57.590Z,61.74
2018-09-24T11:29:57.582Z,62.76
2018-09-24T11:30:57.569Z,59.00
2018-09-24T11:31:57.557Z,61.01
2018-09-24T11:32:57.544Z,59.91
2018-09-24T11:33:57.533Z,57.98
2018-09-24T11:34:57.523Z,60.32
2018-09-24T11:35:57.517Z,64.15
2018-09-24T11:36:57.502Z,64.42
2018-09-24T11:37:57.497Z,64.09
2018-09-24T11:38:57.482Z,59.93
2018-09-24T11:39:57.470Z,60.72
2018-09-24T11:40:57.465Z,55.75
2018-09-24T11:41:57.447Z,56.76
2018-09-24T11:42:57.436Z,56.26
2018-09-24T11:43:57.424Z,60.58
2018-09-24T11:44:57.414Z,55.70
2018-09-24T11:45:57.404Z,55.19
2018-09-24T11:46:57.471Z,56.33
2018-09-24T11:47:57.384Z,54.91
2018-09-24T11:48:57.372Z,57.04
2018-09-24T11:49:57.362Z,57.32
2018-09-24T11:50:57.353Z,58.86
2018-09-24T11:51:57.336Z,58.08
2018-09-24T11:52:57.326Z,62.87
2018-09-24T11:53:57.321Z,57.60
2018-09-24T11:54:57.304Z,57.50
2018-09-24T11:55:57.299Z,57.80
2018-09-24T11:56:57.283Z,60.13
2018-09-24T11:57:57.275Z,58.08
2018-09-24T11:58:57.260Z,59.80
2018-09-24T11:59:57.253Z,58.16
2018-09-24T12:00:57.241Z,56.23
2018-09-24T12:01:57.257Z,57.87
2018-09-24T12:02:57.219Z,56.89
2018-09-24T12:03:57.212Z,58.52
2018-09-24T12:04:57.194Z,58.01
2018-09-24T12:05:57.183Z,57.93
2018-09-24T12:06:57.174Z,57.93
2018-09-24T12:07:57.163Z,58.54
2018-09-24T12:08:57.157Z,58.14
2018-09-24T12:09:57.140Z,62.32
2018-09-24T12:10:57.131Z,60.60
2018-09-24T12:11:57.119Z,61.74
2018-09-24T12:12:57.110Z,61.13
2018-09-24T12:13:57.105Z,61.74
2018-09-24T12:14:57.088Z,61.21
2018-09-24T12:15:57.077Z,61.41
2018-09-24T12:16:57.064Z,60.40
2018-09-24T12:17:57.102Z,61.71
2018-09-24T12:18:57.042Z,60.70
2018-09-24T12:19:57.036Z,62.12
2018-09-24T12:20:57.021Z,61.38
2018-09-24T12:21:57.013Z,66.15
2018-09-24T12:22:57.000Z,62.50
2018-09-24T12:23:56.989Z,64.33
2018-09-24T12:24:56.978Z,61.71
2018-09-24T12:25:56.969Z,64.25
2018-09-24T12:26:56.960Z,63.58
2018-09-24T12:27:56.947Z,66.82
2018-09-24T12:28:56.936Z,67.84
2018-09-24T12:29:56.925Z,64.11
2018-09-24T12:30:56.916Z,63.29
2018-09-24T12:31:56.902Z,64.75
2018-09-24T12:32:56.891Z,62.85
2018-09-24T12:33:56.882Z,65.09
2018-09-24T12:34:56.868Z,65.49
2018-09-24T12:35:56.859Z,63.87
2018-09-24T12:36:56.848Z,64.68
2018-09-24T12:37:56.837Z,62.65
2018-09-24T12:38:56.824Z,62.75
2018-09-24T12:39:56.814Z,62.44
2018-09-24T12:40:56.803Z,66.41
2018-09-24T12:41:56.794Z,66.51
2018-09-24T12:42:56.781Z,63.56
2018-09-24T12:43:56.772Z,64.17
2018-09-24T12:44:56.760Z,62.71
2018-09-24T12:45:56.749Z,64.04
2018-09-24T12:46:56.739Z,64.82
2018-09-24T12:47:56.746Z,67.36
2018-09-24T12:48:56.718Z,67.87
2018-09-24T12:49:56.706Z,65.74
2018-09-24T12:50:56.695Z,62.31
2018-09-24T12:51:56.684Z,61.70